BFS32N RPLL-RPLB
Flight info
| Callsign | BFS32N |
|---|---|
| Flight time | N/A |
| Altitude | 6000 |
| Route | NATIB |
| Aircraft | C172/L-SDFGY/CB1 |
Departure
| Time | 2026-05-07 15:25 |
|---|---|
| Airport | Ninoy Aquino International Airport (RPLL) |
Arrival
| Time | N/A |
|---|---|
| Airport | Subic Bay International Airport / Naval Air Station Cubi Point (RPLB) |
| Time | Latitude | Longitude | Altitude | Speed | Heading |
|---|---|---|---|---|---|
| 2026-05-07 15:01 | 14.52720 | 121.00180 | 19 ft | 0 kts | 178° |
| 2026-05-07 15:22 | 14.52711 | 121.00181 | 19 ft | 5 kts | 178° |
| 2026-05-07 15:22 | 14.52653 | 121.00182 | 20 ft | 10 kts | 174° |
| 2026-05-07 15:22 | 14.52623 | 121.00182 | 19 ft | 0 kts | 195° |
| 2026-05-07 15:23 | 14.52606 | 121.00178 | 19 ft | 7 kts | 184° |
| 2026-05-07 15:23 | 14.52546 | 121.00217 | 20 ft | 14 kts | 133° |
| 2026-05-07 15:23 | 14.52471 | 121.00295 | 22 ft | 18 kts | 137° |
| 2026-05-07 15:24 | 14.52379 | 121.00385 | 22 ft | 21 kts | 136° |
| 2026-05-07 15:24 | 14.52280 | 121.00491 | 23 ft | 24 kts | 135° |
| 2026-05-07 15:24 | 14.52118 | 121.00655 | 27 ft | 52 kts | 132° |
| 2026-05-07 15:24 | 14.51827 | 121.00952 | 137 ft | 67 kts | 136° |
| 2026-05-07 15:25 | 14.51559 | 121.01219 | 338 ft | 60 kts | 138° |
| 2026-05-07 15:25 | 14.51213 | 121.01527 | 481 ft | 67 kts | 141° |
| 2026-05-07 15:25 | 14.50803 | 121.01859 | 743 ft | 59 kts | 139° |
| 2026-05-07 15:25 | 14.50458 | 121.02191 | 819 ft | 76 kts | 130° |
| 2026-05-07 15:26 | 14.50224 | 121.02640 | 912 ft | 84 kts | 113° |
| 2026-05-07 15:26 | 14.49976 | 121.03280 | 1073 ft | 87 kts | 112° |
| 2026-05-07 15:26 | 14.49759 | 121.03854 | 1236 ft | 86 kts | 112° |
| 2026-05-07 15:26 | 14.49561 | 121.04385 | 1467 ft | 77 kts | 111° |
| 2026-05-07 15:27 | 14.49371 | 121.04890 | 1642 ft | 76 kts | 111° |
| 2026-05-07 15:27 | 14.49187 | 121.05376 | 1809 ft | 75 kts | 111° |
| 2026-05-07 15:27 | 14.48998 | 121.05876 | 1982 ft | 75 kts | 111° |
| 2026-05-07 15:27 | 14.48816 | 121.06362 | 2151 ft | 74 kts | 111° |
| 2026-05-07 15:28 | 14.48638 | 121.06838 | 2318 ft | 73 kts | 111° |
| 2026-05-07 15:28 | 14.48458 | 121.07320 | 2475 ft | 74 kts | 111° |
| 2026-05-07 15:28 | 14.48274 | 121.07810 | 2624 ft | 75 kts | 111° |
| 2026-05-07 15:28 | 14.48089 | 121.08307 | 2772 ft | 76 kts | 111° |
| 2026-05-07 15:29 | 14.47800 | 121.08747 | 2921 ft | 77 kts | 147° |
| 2026-05-07 15:29 | 14.47292 | 121.08833 | 3071 ft | 77 kts | 195° |
| 2026-05-07 15:29 | 14.46899 | 121.08525 | 3215 ft | 76 kts | 241° |
| 2026-05-07 15:29 | 14.46802 | 121.08002 | 3365 ft | 76 kts | 270° |
| 2026-05-07 15:30 | 14.46815 | 121.07471 | 3511 ft | 76 kts | 272° |
| 2026-05-07 15:30 | 14.46837 | 121.06940 | 3657 ft | 76 kts | 274° |
| 2026-05-07 15:30 | 14.46908 | 121.06419 | 3798 ft | 76 kts | 283° |
| 2026-05-07 15:30 | 14.47057 | 121.05901 | 3856 ft | 86 kts | 289° |
| 2026-05-07 15:31 | 14.47248 | 121.05306 | 3912 ft | 93 kts | 289° |
| 2026-05-07 15:31 | 14.47462 | 121.04643 | 3967 ft | 98 kts | 289° |
| 2026-05-07 15:31 | 14.47684 | 121.03948 | 4021 ft | 102 kts | 289° |
| 2026-05-07 15:31 | 14.47957 | 121.03311 | 4070 ft | 104 kts | 296° |
| 2026-05-07 15:32 | 14.48260 | 121.02675 | 4130 ft | 104 kts | 297° |
| 2026-05-07 15:32 | 14.48572 | 121.02022 | 4226 ft | 102 kts | 296° |
| 2026-05-07 15:32 | 14.48875 | 121.01388 | 4322 ft | 100 kts | 296° |
| 2026-05-07 15:32 | 14.49295 | 121.00879 | 4417 ft | 98 kts | 329° |
| 2026-05-07 15:33 | 14.49857 | 121.00575 | 4510 ft | 97 kts | 334° |
| 2026-05-07 15:33 | 14.50357 | 121.00331 | 4591 ft | 97 kts | 335° |
| 2026-05-07 15:33 | 14.50945 | 121.00047 | 4686 ft | 96 kts | 335° |
| 2026-05-07 15:33 | 14.51591 | 120.99734 | 4792 ft | 97 kts | 335° |
| 2026-05-07 15:34 | 14.52163 | 120.99444 | 4884 ft | 98 kts | 326° |
| 2026-05-07 15:34 | 14.52550 | 120.98888 | 4970 ft | 101 kts | 292° |
| 2026-05-07 15:34 | 14.52775 | 120.98212 | 5069 ft | 103 kts | 288° |
| 2026-05-07 15:34 | 14.52970 | 120.97570 | 5160 ft | 105 kts | 288° |
| 2026-05-07 15:35 | 14.53117 | 120.97093 | 5227 ft | 106 kts | 287° |
| 2026-05-07 15:35 | 14.53378 | 120.96184 | 5351 ft | 107 kts | 287° |
| 2026-05-07 15:35 | 14.53576 | 120.95482 | 5446 ft | 107 kts | 287° |
| 2026-05-07 15:35 | 14.53770 | 120.94785 | 5539 ft | 107 kts | 285° |
| 2026-05-07 15:36 | 14.53943 | 120.94128 | 5628 ft | 108 kts | 284° |
| 2026-05-07 15:36 | 14.54116 | 120.93474 | 5715 ft | 108 kts | 285° |
| 2026-05-07 15:36 | 14.54288 | 120.92832 | 5801 ft | 108 kts | 285° |
| 2026-05-07 15:36 | 14.54439 | 120.92276 | 5875 ft | 108 kts | 285° |
| 2026-05-07 15:37 | 14.54837 | 120.90829 | 5929 ft | 117 kts | 285° |
| 2026-05-07 15:37 | 14.55096 | 120.89893 | 5929 ft | 121 kts | 285° |
| 2026-05-07 15:37 | 14.55330 | 120.89049 | 5928 ft | 122 kts | 285° |
| 2026-05-07 15:38 | 14.55567 | 120.88191 | 5928 ft | 123 kts | 285° |
| 2026-05-07 15:38 | 14.55805 | 120.87328 | 5928 ft | 123 kts | 285° |
| 2026-05-07 15:38 | 14.56039 | 120.86481 | 5928 ft | 123 kts | 285° |
| 2026-05-07 15:38 | 14.56285 | 120.85617 | 5927 ft | 123 kts | 288° |
| 2026-05-07 15:39 | 14.56563 | 120.84767 | 5928 ft | 123 kts | 289° |
| 2026-05-07 15:39 | 14.56845 | 120.83914 | 5928 ft | 123 kts | 289° |
| 2026-05-07 15:39 | 14.57122 | 120.83074 | 5928 ft | 123 kts | 289° |
| 2026-05-07 15:39 | 14.57404 | 120.82220 | 5928 ft | 123 kts | 289° |
| 2026-05-07 15:40 | 14.57685 | 120.81364 | 5928 ft | 123 kts | 289° |
| 2026-05-07 15:40 | 14.57967 | 120.80508 | 5928 ft | 123 kts | 288° |
| 2026-05-07 15:40 | 14.58250 | 120.79647 | 5928 ft | 123 kts | 288° |
| 2026-05-07 15:40 | 14.58529 | 120.78799 | 5928 ft | 123 kts | 288° |
| 2026-05-07 15:41 | 14.58809 | 120.77946 | 5927 ft | 123 kts | 288° |
| 2026-05-07 15:41 | 14.59091 | 120.77090 | 5927 ft | 123 kts | 288° |
| 2026-05-07 15:41 | 14.59371 | 120.76238 | 5927 ft | 123 kts | 288° |
| 2026-05-07 15:41 | 14.59650 | 120.75388 | 5927 ft | 123 kts | 288° |
| 2026-05-07 15:42 | 14.59928 | 120.74542 | 5927 ft | 123 kts | 288° |
| 2026-05-07 15:42 | 14.60209 | 120.73688 | 5927 ft | 123 kts | 288° |
| 2026-05-07 15:42 | 14.60491 | 120.72829 | 5927 ft | 123 kts | 288° |
| 2026-05-07 15:42 | 14.60768 | 120.71984 | 5927 ft | 123 kts | 288° |
| 2026-05-07 15:43 | 14.61047 | 120.71134 | 5927 ft | 123 kts | 288° |
| 2026-05-07 15:43 | 14.61323 | 120.70293 | 5927 ft | 123 kts | 288° |
| 2026-05-07 15:43 | 14.61600 | 120.69452 | 5927 ft | 123 kts | 288° |
| 2026-05-07 15:43 | 14.61879 | 120.68602 | 5927 ft | 123 kts | 288° |
| 2026-05-07 15:44 | 14.62158 | 120.67750 | 5927 ft | 123 kts | 288° |
| 2026-05-07 15:44 | 14.62439 | 120.66894 | 5927 ft | 123 kts | 288° |
| 2026-05-07 15:44 | 14.62716 | 120.66051 | 5927 ft | 123 kts | 288° |
| 2026-05-07 15:44 | 14.62994 | 120.65202 | 5927 ft | 123 kts | 288° |
| 2026-05-07 15:45 | 14.63269 | 120.64366 | 5927 ft | 123 kts | 288° |
| 2026-05-07 15:45 | 14.63550 | 120.63509 | 5927 ft | 123 kts | 288° |
| 2026-05-07 15:45 | 14.63825 | 120.62669 | 5927 ft | 123 kts | 288° |
| 2026-05-07 15:45 | 14.64110 | 120.61800 | 5927 ft | 123 kts | 288° |
| 2026-05-07 15:46 | 14.64664 | 120.60112 | 5927 ft | 123 kts | 288° |
| 2026-05-07 15:46 | 14.64942 | 120.59263 | 5927 ft | 123 kts | 288° |
| 2026-05-07 15:46 | 14.65225 | 120.58400 | 5927 ft | 123 kts | 288° |
| 2026-05-07 15:47 | 14.65504 | 120.57548 | 5927 ft | 123 kts | 288° |
| 2026-05-07 15:47 | 14.65783 | 120.56696 | 5927 ft | 123 kts | 288° |
| 2026-05-07 15:47 | 14.66063 | 120.55842 | 5927 ft | 123 kts | 289° |
| 2026-05-07 15:47 | 14.66340 | 120.54997 | 5927 ft | 123 kts | 289° |
| 2026-05-07 15:48 | 14.66618 | 120.54150 | 5927 ft | 123 kts | 289° |
| 2026-05-07 15:48 | 14.66894 | 120.53308 | 5927 ft | 123 kts | 289° |
| 2026-05-07 15:48 | 14.67172 | 120.52462 | 5927 ft | 123 kts | 289° |
| 2026-05-07 15:48 | 14.67455 | 120.51598 | 5927 ft | 123 kts | 289° |
| 2026-05-07 15:49 | 14.67732 | 120.50753 | 5927 ft | 123 kts | 289° |
| 2026-05-07 15:49 | 14.68007 | 120.49913 | 5927 ft | 123 kts | 289° |
| 2026-05-07 15:49 | 14.68284 | 120.49068 | 5927 ft | 123 kts | 289° |
| 2026-05-07 15:49 | 14.68556 | 120.48236 | 5927 ft | 123 kts | 289° |
| 2026-05-07 15:50 | 14.68829 | 120.47404 | 5927 ft | 123 kts | 289° |
| 2026-05-07 15:50 | 14.69101 | 120.46573 | 5927 ft | 123 kts | 289° |
| 2026-05-07 15:50 | 14.69376 | 120.45732 | 5927 ft | 123 kts | 289° |
| 2026-05-07 15:50 | 14.69654 | 120.44885 | 5927 ft | 123 kts | 289° |
| 2026-05-07 15:51 | 14.69910 | 120.44102 | 5927 ft | 123 kts | 289° |
| 2026-05-07 15:51 | 14.70189 | 120.43250 | 5927 ft | 123 kts | 289° |
| 2026-05-07 15:51 | 14.70468 | 120.42399 | 5927 ft | 123 kts | 289° |
| 2026-05-07 15:51 | 14.70748 | 120.41544 | 5927 ft | 123 kts | 289° |
| 2026-05-07 15:52 | 14.71026 | 120.40694 | 5927 ft | 123 kts | 289° |
| 2026-05-07 15:52 | 14.71327 | 120.39851 | 5926 ft | 123 kts | 297° |
| 2026-05-07 15:52 | 14.71782 | 120.39079 | 5927 ft | 123 kts | 303° |
| 2026-05-07 15:52 | 14.72265 | 120.38329 | 5927 ft | 123 kts | 303° |
| 2026-05-07 15:53 | 14.72752 | 120.37575 | 5927 ft | 123 kts | 303° |
| 2026-05-07 15:53 | 14.73235 | 120.36825 | 5927 ft | 123 kts | 303° |
| 2026-05-07 15:53 | 14.73724 | 120.36064 | 5927 ft | 123 kts | 303° |
| 2026-05-07 15:53 | 14.74203 | 120.35319 | 5927 ft | 123 kts | 303° |
| 2026-05-07 15:54 | 14.74687 | 120.34567 | 5927 ft | 123 kts | 303° |
| 2026-05-07 15:54 | 14.75174 | 120.33808 | 5927 ft | 123 kts | 303° |
| 2026-05-07 15:54 | 14.75656 | 120.33058 | 5927 ft | 123 kts | 303° |
| 2026-05-07 15:54 | 14.76143 | 120.32300 | 5927 ft | 123 kts | 303° |
| 2026-05-07 15:55 | 14.76620 | 120.31557 | 5927 ft | 123 kts | 303° |
| 2026-05-07 15:55 | 14.77107 | 120.30799 | 5927 ft | 123 kts | 303° |
| 2026-05-07 15:55 | 14.77598 | 120.30035 | 5927 ft | 123 kts | 303° |
| 2026-05-07 15:55 | 14.78082 | 120.29281 | 5927 ft | 123 kts | 303° |
| 2026-05-07 15:56 | 14.78570 | 120.28522 | 5927 ft | 123 kts | 303° |
| 2026-05-07 15:56 | 14.79052 | 120.27771 | 5927 ft | 123 kts | 303° |
| 2026-05-07 15:56 | 14.79575 | 120.27039 | 5924 ft | 123 kts | 319° |
| 2026-05-07 15:56 | 14.80362 | 120.26695 | 5925 ft | 123 kts | 359° |
| 2026-05-07 15:57 | 14.81141 | 120.27017 | 5925 ft | 123 kts | 44° |
| 2026-05-07 15:57 | 14.81466 | 120.27820 | 5926 ft | 123 kts | 90° |
| 2026-05-07 15:57 | 14.81134 | 120.28619 | 5926 ft | 123 kts | 135° |
| 2026-05-07 15:57 | 14.80407 | 120.29095 | 5928 ft | 123 kts | 152° |
| 2026-05-07 15:58 | 14.79638 | 120.29488 | 5928 ft | 123 kts | 153° |
| 2026-05-07 15:58 | 14.78869 | 120.29883 | 5928 ft | 123 kts | 153° |
| 2026-05-07 15:58 | 14.78100 | 120.30287 | 5927 ft | 123 kts | 149° |
| 2026-05-07 15:58 | 14.77433 | 120.30828 | 5927 ft | 123 kts | 133° |
| 2026-05-07 15:59 | 14.77012 | 120.31595 | 5928 ft | 123 kts | 114° |
| 2026-05-07 15:59 | 14.76677 | 120.32410 | 5927 ft | 123 kts | 114° |
| 2026-05-07 15:59 | 14.76203 | 120.33124 | 5928 ft | 123 kts | 128° |
| 2026-05-07 15:59 | 14.75694 | 120.33777 | 5928 ft | 123 kts | 129° |
| 2026-05-07 16:00 | 14.75177 | 120.34431 | 5927 ft | 123 kts | 129° |
| 2026-05-07 16:00 | 14.74660 | 120.35083 | 5927 ft | 123 kts | 129° |
| 2026-05-07 16:00 | 14.74142 | 120.35738 | 5927 ft | 123 kts | 129° |
| 2026-05-07 16:00 | 14.73611 | 120.36408 | 5927 ft | 123 kts | 129° |
| 2026-05-07 16:01 | 14.73096 | 120.37060 | 5927 ft | 123 kts | 129° |
| 2026-05-07 16:01 | 14.72574 | 120.37719 | 5927 ft | 123 kts | 129° |
| 2026-05-07 16:01 | 14.72039 | 120.38393 | 5927 ft | 123 kts | 129° |
| 2026-05-07 16:01 | 14.71526 | 120.39042 | 5927 ft | 123 kts | 129° |
| 2026-05-07 16:02 | 14.71020 | 120.39681 | 5927 ft | 123 kts | 129° |
| 2026-05-07 16:02 | 14.70498 | 120.40340 | 5927 ft | 123 kts | 129° |
| 2026-05-07 16:02 | 14.69985 | 120.40987 | 5927 ft | 123 kts | 129° |
| 2026-05-07 16:02 | 14.69450 | 120.41663 | 5927 ft | 123 kts | 129° |
| 2026-05-07 16:03 | 14.68916 | 120.42338 | 5927 ft | 123 kts | 129° |
| 2026-05-07 16:03 | 14.68382 | 120.43012 | 5927 ft | 123 kts | 129° |
| 2026-05-07 16:03 | 14.67867 | 120.43662 | 5927 ft | 123 kts | 129° |
| 2026-05-07 16:03 | 14.67336 | 120.44333 | 5927 ft | 123 kts | 129° |
| 2026-05-07 16:04 | 14.66807 | 120.45001 | 5927 ft | 123 kts | 129° |
| 2026-05-07 16:04 | 14.66272 | 120.45676 | 5927 ft | 123 kts | 129° |
| 2026-05-07 16:04 | 14.65745 | 120.46340 | 5927 ft | 123 kts | 129° |
| 2026-05-07 16:04 | 14.65218 | 120.47006 | 5927 ft | 123 kts | 129° |
| 2026-05-07 16:05 | 14.64702 | 120.47657 | 5927 ft | 123 kts | 129° |
| 2026-05-07 16:05 | 14.64161 | 120.48341 | 5927 ft | 123 kts | 129° |
| 2026-05-07 16:05 | 14.63629 | 120.49011 | 5927 ft | 123 kts | 129° |
| 2026-05-07 16:05 | 14.63117 | 120.49658 | 5927 ft | 123 kts | 129° |
| 2026-05-07 16:06 | 14.62582 | 120.50333 | 5927 ft | 123 kts | 129° |
| 2026-05-07 16:06 | 14.62059 | 120.50992 | 5927 ft | 123 kts | 129° |
| 2026-05-07 16:06 | 14.61536 | 120.51653 | 5927 ft | 123 kts | 129° |
| 2026-05-07 16:06 | 14.61021 | 120.52303 | 5927 ft | 123 kts | 129° |
| 2026-05-07 16:07 | 14.60498 | 120.52962 | 5927 ft | 123 kts | 129° |
| 2026-05-07 16:07 | 14.59970 | 120.53629 | 5927 ft | 123 kts | 129° |
| 2026-05-07 16:07 | 14.59445 | 120.54291 | 5927 ft | 123 kts | 129° |
| 2026-05-07 16:07 | 14.58910 | 120.54966 | 5927 ft | 123 kts | 129° |
| 2026-05-07 16:08 | 14.58373 | 120.55643 | 5927 ft | 123 kts | 129° |
| 2026-05-07 16:08 | 14.57847 | 120.56306 | 5927 ft | 123 kts | 129° |
| 2026-05-07 16:08 | 14.57327 | 120.56960 | 5927 ft | 123 kts | 130° |
| 2026-05-07 16:08 | 14.56741 | 120.57601 | 5927 ft | 123 kts | 134° |
| 2026-05-07 16:09 | 14.56126 | 120.58215 | 5925 ft | 124 kts | 142° |
| 2026-05-07 16:09 | 14.55423 | 120.58714 | 5777 ft | 122 kts | 147° |
| 2026-05-07 16:09 | 14.54665 | 120.59093 | 5531 ft | 122 kts | 158° |
| 2026-05-07 16:09 | 14.53885 | 120.59415 | 5284 ft | 122 kts | 159° |
| 2026-05-07 16:10 | 14.53112 | 120.59727 | 5041 ft | 122 kts | 159° |
| 2026-05-07 16:10 | 14.52319 | 120.60049 | 4792 ft | 122 kts | 159° |
| 2026-05-07 16:10 | 14.51539 | 120.60365 | 4546 ft | 122 kts | 159° |
| 2026-05-07 16:10 | 14.50770 | 120.60676 | 4303 ft | 122 kts | 159° |
| 2026-05-07 16:11 | 14.49956 | 120.60835 | 4061 ft | 121 kts | 176° |
| 2026-05-07 16:11 | 14.49126 | 120.60885 | 3816 ft | 121 kts | 178° |
| 2026-05-07 16:11 | 14.48322 | 120.60974 | 3569 ft | 122 kts | 161° |
| 2026-05-07 16:11 | 14.47720 | 120.61491 | 3323 ft | 122 kts | 121° |
| 2026-05-07 16:12 | 14.47582 | 120.62336 | 3060 ft | 122 kts | 79° |
| 2026-05-07 16:12 | 14.47891 | 120.63130 | 2812 ft | 124 kts | 63° |
| 2026-05-07 16:12 | 14.48243 | 120.63839 | 2606 ft | 136 kts | 63° |
| 2026-05-07 16:12 | 14.48625 | 120.64597 | 2391 ft | 139 kts | 63° |
| 2026-05-07 16:13 | 14.49066 | 120.65469 | 2146 ft | 140 kts | 63° |
| 2026-05-07 16:13 | 14.49494 | 120.66313 | 1961 ft | 138 kts | 63° |
| 2026-05-07 16:13 | 14.50015 | 120.67337 | 1927 ft | 126 kts | 63° |
| 2026-05-07 16:13 | 14.50412 | 120.68117 | 1926 ft | 121 kts | 62° |
| 2026-05-07 16:14 | 14.50800 | 120.68879 | 1926 ft | 119 kts | 62° |
| 2026-05-07 16:14 | 14.51187 | 120.69642 | 1927 ft | 119 kts | 62° |
| 2026-05-07 16:14 | 14.51572 | 120.70400 | 1928 ft | 119 kts | 62° |
| 2026-05-07 16:14 | 14.51959 | 120.71164 | 1928 ft | 121 kts | 62° |
| 2026-05-07 16:15 | 14.52352 | 120.71938 | 1928 ft | 122 kts | 62° |
| 2026-05-07 16:15 | 14.52748 | 120.72720 | 1928 ft | 122 kts | 62° |
| 2026-05-07 16:15 | 14.53151 | 120.73515 | 1927 ft | 123 kts | 62° |
| 2026-05-07 16:15 | 14.53551 | 120.74303 | 1927 ft | 123 kts | 62° |
| 2026-05-07 16:16 | 14.53963 | 120.75116 | 1927 ft | 123 kts | 62° |
| 2026-05-07 16:16 | 14.54357 | 120.75893 | 1927 ft | 123 kts | 62° |
| 2026-05-07 16:16 | 14.54761 | 120.76690 | 1927 ft | 123 kts | 62° |
| 2026-05-07 16:16 | 14.55166 | 120.77488 | 1927 ft | 123 kts | 62° |
| 2026-05-07 16:17 | 14.55574 | 120.78294 | 1927 ft | 123 kts | 62° |
| 2026-05-07 16:17 | 14.55974 | 120.79082 | 1927 ft | 123 kts | 62° |
| 2026-05-07 16:17 | 14.56371 | 120.79863 | 1927 ft | 123 kts | 62° |
| 2026-05-07 16:17 | 14.56772 | 120.80655 | 1927 ft | 123 kts | 62° |
| 2026-05-07 16:18 | 14.57172 | 120.81444 | 1927 ft | 123 kts | 62° |
| 2026-05-07 16:18 | 14.57572 | 120.82230 | 1927 ft | 123 kts | 62° |
| 2026-05-07 16:18 | 14.57977 | 120.83030 | 1927 ft | 123 kts | 62° |
| 2026-05-07 16:18 | 14.58365 | 120.83794 | 1927 ft | 123 kts | 62° |
| 2026-05-07 16:19 | 14.58745 | 120.84544 | 1927 ft | 123 kts | 62° |
| 2026-05-07 16:19 | 14.59123 | 120.85290 | 1927 ft | 123 kts | 62° |
| 2026-05-07 16:19 | 14.59485 | 120.86002 | 1927 ft | 123 kts | 62° |
| 2026-05-07 16:19 | 14.59755 | 120.86536 | 1924 ft | 116 kts | 63° |
| 2026-05-07 16:20 | 14.60065 | 120.87141 | 1923 ft | 106 kts | 62° |
| 2026-05-07 16:20 | 14.60370 | 120.87743 | 1925 ft | 103 kts | 65° |
| 2026-05-07 16:20 | 14.60437 | 120.88338 | 1926 ft | 103 kts | 101° |
| 2026-05-07 16:21 | 14.60031 | 120.89563 | 1927 ft | 102 kts | 110° |
| 2026-05-07 16:21 | 14.59814 | 120.90165 | 1932 ft | 95 kts | 111° |
| 2026-05-07 16:21 | 14.59624 | 120.90672 | 1895 ft | 92 kts | 111° |
| 2026-05-07 16:21 | 14.59419 | 120.91202 | 1850 ft | 90 kts | 112° |
| 2026-05-07 16:22 | 14.59226 | 120.91688 | 1807 ft | 88 kts | 112° |
| 2026-05-07 16:22 | 14.59018 | 120.92198 | 1763 ft | 88 kts | 113° |
| 2026-05-07 16:22 | 14.58455 | 120.93157 | 1671 ft | 87 kts | 130° |
| 2026-05-07 16:23 | 14.58224 | 120.93431 | 1643 ft | 86 kts | 131° |
| 2026-05-07 16:23 | 14.57518 | 120.94257 | 1625 ft | 79 kts | 130° |
| 2026-05-07 16:23 | 14.57238 | 120.94589 | 1630 ft | 75 kts | 130° |